sensor_id;sensor_type;location;lat;lon;timestamp;P1;durP1;ratioP1;P2;durP2;ratioP2
16246;SDS011;8231;50.866;7.944;2024-03-23T00:54:03;3.90;;;3.22;;
16246;SDS011;8231;50.866;7.944;2024-03-23T00:56:29;3.10;;;2.78;;
16246;SDS011;8231;50.866;7.944;2024-03-23T00:58:56;2.20;;;2.00;;
16246;SDS011;8231;50.866;7.944;2024-03-23T01:01:23;2.42;;;2.22;;
16246;SDS011;8231;50.866;7.944;2024-03-23T01:03:50;2.25;;;2.05;;
16246;SDS011;8231;50.866;7.944;2024-03-23T01:06:16;2.83;;;2.63;;
16246;SDS011;8231;50.866;7.944;2024-03-23T01:08:44;2.63;;;2.42;;
16246;SDS011;8231;50.866;7.944;2024-03-23T01:11:11;2.72;;;2.53;;
16246;SDS011;8231;50.866;7.944;2024-03-23T01:13:39;2.60;;;2.40;;
16246;SDS011;8231;50.866;7.944;2024-03-23T01:16:05;3.47;;;2.92;;
16246;SDS011;8231;50.866;7.944;2024-03-23T01:18:32;3.47;;;2.45;;
16246;SDS011;8231;50.866;7.944;2024-03-23T01:20:59;5.72;;;2.60;;
16246;SDS011;8231;50.866;7.944;2024-03-23T01:23:26;3.40;;;3.10;;
16246;SDS011;8231;50.866;7.944;2024-03-23T01:25:52;4.07;;;3.58;;
16246;SDS011;8231;50.866;7.944;2024-03-23T01:28:21;4.60;;;2.70;;
16246;SDS011;8231;50.866;7.944;2024-03-23T01:30:49;2.60;;;2.40;;
16246;SDS011;8231;50.866;7.944;2024-03-23T01:33:17;3.75;;;2.97;;
16246;SDS011;8231;50.866;7.944;2024-03-23T01:35:43;2.90;;;2.60;;
16246;SDS011;8231;50.866;7.944;2024-03-23T01:38:10;3.30;;;2.97;;
16246;SDS011;8231;50.866;7.944;2024-03-23T01:40:36;2.53;;;2.13;;
16246;SDS011;8231;50.866;7.944;2024-03-23T01:43:05;2.42;;;1.67;;
16246;SDS011;8231;50.866;7.944;2024-03-23T01:45:34;2.90;;;1.77;;
16246;SDS011;8231;50.866;7.944;2024-03-23T01:48:02;1.60;;;1.50;;
16246;SDS011;8231;50.866;7.944;2024-03-23T01:50:30;2.80;;;1.77;;
16246;SDS011;8231;50.866;7.944;2024-03-23T01:52:59;2.67;;;1.73;;
16246;SDS011;8231;50.866;7.944;2024-03-23T01:55:27;2.35;;;1.90;;
16246;SDS011;8231;50.866;7.944;2024-03-23T01:57:56;2.78;;;1.90;;
16246;SDS011;8231;50.866;7.944;2024-03-23T02:00:22;4.07;;;2.20;;
16246;SDS011;8231;50.866;7.944;2024-03-23T02:02:51;4.35;;;2.55;;
16246;SDS011;8231;50.866;7.944;2024-03-23T02:05:18;3.03;;;2.33;;
16246;SDS011;8231;50.866;7.944;2024-03-23T02:07:45;3.15;;;1.95;;
16246;SDS011;8231;50.866;7.944;2024-03-23T02:10:12;6.05;;;2.42;;
16246;SDS011;8231;50.866;7.944;2024-03-23T02:12:40;5.18;;;1.80;;
16246;SDS011;8231;50.866;7.944;2024-03-23T02:15:07;3.58;;;1.60;;
16246;SDS011;8231;50.866;7.944;2024-03-23T02:17:35;3.70;;;2.03;;
16246;SDS011;8231;50.866;7.944;2024-03-23T02:20:04;2.70;;;1.85;;
16246;SDS011;8231;50.866;7.944;2024-03-23T02:22:38;2.58;;;1.52;;
16246;SDS011;8231;50.866;7.944;2024-03-23T02:25:06;4.00;;;2.00;;
16246;SDS011;8231;50.866;7.944;2024-03-23T02:27:33;4.40;;;2.10;;
16246;SDS011;8231;50.866;7.944;2024-03-23T02:30:01;1.75;;;1.42;;
16246;SDS011;8231;50.866;7.944;2024-03-23T02:32:30;2.92;;;2.15;;
16246;SDS011;8231;50.866;7.944;2024-03-23T02:34:56;2.08;;;1.88;;
16246;SDS011;8231;50.866;7.944;2024-03-23T02:37:24;3.25;;;1.40;;
16246;SDS011;8231;50.866;7.944;2024-03-23T02:39:50;2.22;;;1.77;;
16246;SDS011;8231;50.866;7.944;2024-03-23T02:42:19;3.22;;;1.85;;
16246;SDS011;8231;50.866;7.944;2024-03-23T02:44:45;3.50;;;2.47;;
16246;SDS011;8231;50.866;7.944;2024-03-23T02:47:13;3.35;;;2.20;;
16246;SDS011;8231;50.866;7.944;2024-03-23T02:49:39;3.70;;;2.10;;
16246;SDS011;8231;50.866;7.944;2024-03-23T02:52:06;3.03;;;1.88;;
16246;SDS011;8231;50.866;7.944;2024-03-23T02:54:32;2.90;;;1.70;;
16246;SDS011;8231;50.866;7.944;2024-03-23T02:57:00;1.73;;;1.40;;
16246;SDS011;8231;50.866;7.944;2024-03-23T02:59:27;2.90;;;1.60;;
16246;SDS011;8231;50.866;7.944;2024-03-23T03:01:55;2.67;;;1.70;;
16246;SDS011;8231;50.866;7.944;2024-03-23T03:04:21;5.25;;;1.52;;
16246;SDS011;8231;50.866;7.944;2024-03-23T03:06:48;2.40;;;1.77;;
16246;SDS011;8231;50.866;7.944;2024-03-23T03:09:15;2.22;;;1.73;;
16246;SDS011;8231;50.866;7.944;2024-03-23T03:11:42;2.90;;;1.52;;
16246;SDS011;8231;50.866;7.944;2024-03-23T03:14:08;1.95;;;1.67;;
16246;SDS011;8231;50.866;7.944;2024-03-23T03:16:37;5.60;;;2.33;;
16246;SDS011;8231;50.866;7.944;2024-03-23T03:19:03;3.20;;;1.73;;
16246;SDS011;8231;50.866;7.944;2024-03-23T03:21:31;2.72;;;1.50;;
16246;SDS011;8231;50.866;7.944;2024-03-23T03:23:58;3.67;;;1.52;;
16246;SDS011;8231;50.866;7.944;2024-03-23T03:26:25;2.53;;;1.70;;
16246;SDS011;8231;50.866;7.944;2024-03-23T03:28:52;2.67;;;1.60;;
16246;SDS011;8231;50.866;7.944;2024-03-23T03:31:20;2.63;;;1.45;;
16246;SDS011;8231;50.866;7.944;2024-03-23T03:33:49;1.42;;;1.33;;
16246;SDS011;8231;50.866;7.944;2024-03-23T03:36:17;2.05;;;1.20;;
16246;SDS011;8231;50.866;7.944;2024-03-23T03:38:44;1.67;;;1.42;;
16246;SDS011;8231;50.866;7.944;2024-03-23T03:41:11;1.50;;;1.20;;
16246;SDS011;8231;50.866;7.944;2024-03-23T03:43:37;2.25;;;1.80;;
16246;SDS011;8231;50.866;7.944;2024-03-23T03:46:05;2.90;;;1.10;;
16246;SDS011;8231;50.866;7.944;2024-03-23T03:48:33;4.13;;;1.25;;
16246;SDS011;8231;50.866;7.944;2024-03-23T03:51:02;1.23;;;1.08;;
16246;SDS011;8231;50.866;7.944;2024-03-23T03:53:29;2.42;;;1.17;;
16246;SDS011;8231;50.866;7.944;2024-03-23T03:55:56;2.97;;;1.10;;
16246;SDS011;8231;50.866;7.944;2024-03-23T03:58:25;1.00;;;0.80;;
16246;SDS011;8231;50.866;7.944;2024-03-23T04:00:53;1.02;;;1.00;;
16246;SDS011;8231;50.866;7.944;2024-03-23T04:03:19;1.65;;;1.15;;
16246;SDS011;8231;50.866;7.944;2024-03-23T04:05:49;1.42;;;1.20;;
16246;SDS011;8231;50.866;7.944;2024-03-23T04:08:18;1.00;;;0.90;;
16246;SDS011;8231;50.866;7.944;2024-03-23T04:10:45;1.08;;;0.98;;
16246;SDS011;8231;50.866;7.944;2024-03-23T04:13:12;0.98;;;0.93;;
16246;SDS011;8231;50.866;7.944;2024-03-23T04:15:39;0.85;;;0.85;;
16246;SDS011;8231;50.866;7.944;2024-03-23T04:18:06;2.20;;;1.33;;
16246;SDS011;8231;50.866;7.944;2024-03-23T04:20:34;0.90;;;0.77;;
16246;SDS011;8231;50.866;7.944;2024-03-23T04:23:00;0.85;;;0.70;;
16246;SDS011;8231;50.866;7.944;2024-03-23T04:25:30;0.70;;;0.70;;
16246;SDS011;8231;50.866;7.944;2024-03-23T04:27:57;1.60;;;0.90;;
16246;SDS011;8231;50.866;7.944;2024-03-23T04:30:24;1.10;;;1.00;;
16246;SDS011;8231;50.866;7.944;2024-03-23T04:32:53;1.50;;;1.10;;
16246;SDS011;8231;50.866;7.944;2024-03-23T04:35:22;0.80;;;0.80;;
16246;SDS011;8231;50.866;7.944;2024-03-23T04:37:50;0.90;;;0.90;;
16246;SDS011;8231;50.866;7.944;2024-03-23T04:40:19;1.80;;;1.00;;
16246;SDS011;8231;50.866;7.944;2024-03-23T04:42:48;1.13;;;1.13;;
16246;SDS011;8231;50.866;7.944;2024-03-23T04:45:15;0.80;;;0.80;;
16246;SDS011;8231;50.866;7.944;2024-03-23T04:47:42;1.27;;;0.90;;
16246;SDS011;8231;50.866;7.944;2024-03-23T04:50:10;2.15;;;1.00;;
16246;SDS011;8231;50.866;7.944;2024-03-23T04:52:37;2.83;;;1.40;;
16246;SDS011;8231;50.866;7.944;2024-03-23T04:55:08;6.10;;;0.98;;
16246;SDS011;8231;50.866;7.944;2024-03-23T04:57:37;1.90;;;1.25;;
16246;SDS011;8231;50.866;7.944;2024-03-23T05:00:06;2.00;;;1.35;;
16246;SDS011;8231;50.866;7.944;2024-03-23T05:02:42;2.95;;;1.15;;
16246;SDS011;8231;50.866;7.944;2024-03-23T05:05:10;3.05;;;1.75;;
16246;SDS011;8231;50.866;7.944;2024-03-23T05:07:38;5.47;;;1.65;;
16246;SDS011;8231;50.866;7.944;2024-03-23T05:10:04;4.47;;;1.67;;
16246;SDS011;8231;50.866;7.944;2024-03-23T05:12:36;1.98;;;1.33;;
16246;SDS011;8231;50.866;7.944;2024-03-23T05:15:03;4.38;;;1.35;;
16246;SDS011;8231;50.866;7.944;2024-03-23T05:17:31;2.28;;;2.05;;
16246;SDS011;8231;50.866;7.944;2024-03-23T05:19:59;4.88;;;1.63;;
16246;SDS011;8231;50.866;7.944;2024-03-23T05:22:25;6.03;;;1.90;;
16246;SDS011;8231;50.866;7.944;2024-03-23T05:24:53;3.28;;;1.70;;
16246;SDS011;8231;50.866;7.944;2024-03-23T05:27:19;1.48;;;1.25;;
16246;SDS011;8231;50.866;7.944;2024-03-23T05:29:46;3.83;;;1.70;;
16246;SDS011;8231;50.866;7.944;2024-03-23T05:32:15;6.07;;;1.38;;
16246;SDS011;8231;50.866;7.944;2024-03-23T05:34:43;4.00;;;1.88;;
16246;SDS011;8231;50.866;7.944;2024-03-23T05:37:11;5.70;;;1.58;;
16246;SDS011;8231;50.866;7.944;2024-03-23T05:39:37;5.82;;;2.00;;
16246;SDS011;8231;50.866;7.944;2024-03-23T05:42:05;4.43;;;1.52;;
16246;SDS011;8231;50.866;7.944;2024-03-23T05:44:31;4.55;;;1.90;;
16246;SDS011;8231;50.866;7.944;2024-03-23T05:46:59;3.88;;;1.33;;
16246;SDS011;8231;50.866;7.944;2024-03-23T05:49:26;1.88;;;1.17;;
16246;SDS011;8231;50.866;7.944;2024-03-23T05:51:54;3.75;;;1.35;;
16246;SDS011;8231;50.866;7.944;2024-03-23T05:54:20;5.35;;;1.67;;
16246;SDS011;8231;50.866;7.944;2024-03-23T05:56:48;3.53;;;1.70;;
16246;SDS011;8231;50.866;7.944;2024-03-23T05:59:14;4.20;;;1.65;;
16246;SDS011;8231;50.866;7.944;2024-03-23T06:01:41;5.93;;;2.33;;
16246;SDS011;8231;50.866;7.944;2024-03-23T06:04:08;3.13;;;1.90;;
16246;SDS011;8231;50.866;7.944;2024-03-23T06:06:36;3.50;;;1.90;;
16246;SDS011;8231;50.866;7.944;2024-03-23T06:09:03;4.72;;;2.55;;
16246;SDS011;8231;50.866;7.944;2024-03-23T06:11:30;4.88;;;2.33;;
16246;SDS011;8231;50.866;7.944;2024-03-23T06:13:56;4.30;;;2.13;;
16246;SDS011;8231;50.866;7.944;2024-03-23T06:16:23;4.03;;;2.58;;
16246;SDS011;8231;50.866;7.944;2024-03-23T06:18:50;4.97;;;2.65;;
16246;SDS011;8231;50.866;7.944;2024-03-23T06:21:18;5.63;;;2.90;;
16246;SDS011;8231;50.866;7.944;2024-03-23T06:23:45;5.00;;;3.72;;
16246;SDS011;8231;50.866;7.944;2024-03-23T06:26:16;6.15;;;3.05;;
16246;SDS011;8231;50.866;7.944;2024-03-23T06:28:43;10.43;;;3.53;;
16246;SDS011;8231;50.866;7.944;2024-03-23T06:31:10;7.13;;;3.40;;
16246;SDS011;8231;50.866;7.944;2024-03-23T06:33:38;5.18;;;3.25;;
16246;SDS011;8231;50.866;7.944;2024-03-23T06:36:07;8.55;;;3.80;;
16246;SDS011;8231;50.866;7.944;2024-03-23T06:38:35;9.70;;;3.97;;
16246;SDS011;8231;50.866;7.944;2024-03-23T06:41:04;10.38;;;4.10;;
16246;SDS011;8231;50.866;7.944;2024-03-23T06:43:31;8.63;;;4.25;;
16246;SDS011;8231;50.866;7.944;2024-03-23T06:45:58;7.82;;;4.63;;
16246;SDS011;8231;50.866;7.944;2024-03-23T06:48:24;5.03;;;3.80;;
16246;SDS011;8231;50.866;7.944;2024-03-23T06:50:55;6.43;;;3.42;;
16246;SDS011;8231;50.866;7.944;2024-03-23T06:53:21;7.18;;;4.68;;
16246;SDS011;8231;50.866;7.944;2024-03-23T06:55:50;14.80;;;4.90;;
16246;SDS011;8231;50.866;7.944;2024-03-23T06:58:18;10.43;;;4.25;;
16246;SDS011;8231;50.866;7.944;2024-03-23T07:00:46;10.65;;;4.78;;
16246;SDS011;8231;50.866;7.944;2024-03-23T07:03:13;7.03;;;4.03;;
16246;SDS011;8231;50.866;7.944;2024-03-23T07:05:40;21.48;;;5.32;;
16246;SDS011;8231;50.866;7.944;2024-03-23T07:08:08;11.15;;;4.82;;
16246;SDS011;8231;50.866;7.944;2024-03-23T07:10:37;13.55;;;5.13;;
16246;SDS011;8231;50.866;7.944;2024-03-23T07:13:05;10.27;;;5.15;;
16246;SDS011;8231;50.866;7.944;2024-03-23T07:15:33;14.80;;;4.85;;
16246;SDS011;8231;50.866;7.944;2024-03-23T07:18:00;11.02;;;5.10;;
16246;SDS011;8231;50.866;7.944;2024-03-23T07:20:27;11.18;;;6.00;;
16246;SDS011;8231;50.866;7.944;2024-03-23T07:22:56;10.20;;;6.72;;
16246;SDS011;8231;50.866;7.944;2024-03-23T07:25:23;13.88;;;7.20;;
16246;SDS011;8231;50.866;7.944;2024-03-23T07:27:52;16.10;;;7.82;;
16246;SDS011;8231;50.866;7.944;2024-03-23T07:30:20;13.98;;;6.72;;
16246;SDS011;8231;50.866;7.944;2024-03-23T07:32:47;9.57;;;6.75;;
16246;SDS011;8231;50.866;7.944;2024-03-23T07:35:14;10.68;;;6.68;;
16246;SDS011;8231;50.866;7.944;2024-03-23T07:37:41;16.95;;;9.85;;
16246;SDS011;8231;50.866;7.944;2024-03-23T07:40:09;17.20;;;9.85;;
16246;SDS011;8231;50.866;7.944;2024-03-23T07:42:37;18.08;;;7.55;;
16246;SDS011;8231;50.866;7.944;2024-03-23T07:45:04;16.65;;;8.63;;
16246;SDS011;8231;50.866;7.944;2024-03-23T07:47:31;16.73;;;8.80;;
16246;SDS011;8231;50.866;7.944;2024-03-23T07:50:00;24.40;;;9.40;;
16246;SDS011;8231;50.866;7.944;2024-03-23T07:52:27;10.07;;;8.45;;
16246;SDS011;8231;50.866;7.944;2024-03-23T07:54:55;16.30;;;8.32;;
16246;SDS011;8231;50.866;7.944;2024-03-23T07:57:22;13.43;;;8.40;;
16246;SDS011;8231;50.866;7.944;2024-03-23T07:59:48;17.52;;;9.55;;
16246;SDS011;8231;50.866;7.944;2024-03-23T08:02:15;16.83;;;9.23;;
16246;SDS011;8231;50.866;7.944;2024-03-23T08:04:42;15.55;;;10.07;;
16246;SDS011;8231;50.866;7.944;2024-03-23T08:07:10;17.88;;;9.13;;
16246;SDS011;8231;50.866;7.944;2024-03-23T08:09:37;15.13;;;9.13;;
16246;SDS011;8231;50.866;7.944;2024-03-23T08:12:04;18.70;;;11.13;;
16246;SDS011;8231;50.866;7.944;2024-03-23T08:14:31;15.82;;;9.23;;
16246;SDS011;8231;50.866;7.944;2024-03-23T08:16:58;13.95;;;9.20;;
16246;SDS011;8231;50.866;7.944;2024-03-23T08:19:25;13.80;;;9.15;;
16246;SDS011;8231;50.866;7.944;2024-03-23T08:21:52;17.17;;;9.57;;
16246;SDS011;8231;50.866;7.944;2024-03-23T08:24:21;18.33;;;10.13;;
16246;SDS011;8231;50.866;7.944;2024-03-23T08:26:48;14.88;;;8.43;;
16246;SDS011;8231;50.866;7.944;2024-03-23T08:29:15;13.32;;;7.82;;
16246;SDS011;8231;50.866;7.944;2024-03-23T08:31:42;12.68;;;8.93;;
16246;SDS011;8231;50.866;7.944;2024-03-23T08:34:09;13.45;;;8.25;;
16246;SDS011;8231;50.866;7.944;2024-03-23T08:36:36;15.57;;;7.82;;
16246;SDS011;8231;50.866;7.944;2024-03-23T08:39:03;12.18;;;8.43;;
16246;SDS011;8231;50.866;7.944;2024-03-23T08:41:31;12.90;;;8.38;;
16246;SDS011;8231;50.866;7.944;2024-03-23T08:43:59;12.73;;;8.32;;
16246;SDS011;8231;50.866;7.944;2024-03-23T08:46:26;14.98;;;8.63;;
16246;SDS011;8231;50.866;7.944;2024-03-23T08:48:53;14.52;;;7.80;;
16246;SDS011;8231;50.866;7.944;2024-03-23T08:51:20;12.65;;;7.45;;
16246;SDS011;8231;50.866;7.944;2024-03-23T08:53:47;11.18;;;7.47;;
16246;SDS011;8231;50.866;7.944;2024-03-23T08:56:14;11.18;;;6.90;;
16246;SDS011;8231;50.866;7.944;2024-03-23T08:58:42;14.95;;;7.75;;
16246;SDS011;8231;50.866;7.944;2024-03-23T09:01:10;13.20;;;7.53;;
16246;SDS011;8231;50.866;7.944;2024-03-23T09:03:38;11.10;;;6.63;;
16246;SDS011;8231;50.866;7.944;2024-03-23T09:06:06;14.43;;;7.53;;
16246;SDS011;8231;50.866;7.944;2024-03-23T09:08:34;8.90;;;5.53;;
16246;SDS011;8231;50.866;7.944;2024-03-23T09:11:05;12.50;;;6.50;;
16246;SDS011;8231;50.866;7.944;2024-03-23T09:13:34;8.25;;;6.32;;
16246;SDS011;8231;50.866;7.944;2024-03-23T09:16:02;10.75;;;5.70;;
16246;SDS011;8231;50.866;7.944;2024-03-23T09:18:31;11.55;;;5.15;;
16246;SDS011;8231;50.866;7.944;2024-03-23T09:20:58;8.98;;;5.10;;
16246;SDS011;8231;50.866;7.944;2024-03-23T09:23:26;9.15;;;5.07;;
16246;SDS011;8231;50.866;7.944;2024-03-23T09:25:52;9.02;;;5.57;;
16246;SDS011;8231;50.866;7.944;2024-03-23T09:28:19;11.07;;;5.40;;
16246;SDS011;8231;50.866;7.944;2024-03-23T09:30:45;9.57;;;5.10;;
16246;SDS011;8231;50.866;7.944;2024-03-23T09:33:14;8.10;;;4.72;;
16246;SDS011;8231;50.866;7.944;2024-03-23T09:35:41;11.38;;;5.15;;
16246;SDS011;8231;50.866;7.944;2024-03-23T09:38:10;9.82;;;5.07;;
16246;SDS011;8231;50.866;7.944;2024-03-23T09:40:40;10.02;;;4.72;;
16246;SDS011;8231;50.866;7.944;2024-03-23T09:43:08;13.65;;;5.65;;
16246;SDS011;8231;50.866;7.944;2024-03-23T09:45:36;11.80;;;5.35;;
16246;SDS011;8231;50.866;7.944;2024-03-23T09:48:06;11.15;;;5.18;;
16246;SDS011;8231;50.866;7.944;2024-03-23T09:50:37;10.40;;;5.22;;
16246;SDS011;8231;50.866;7.944;2024-03-23T09:53:05;11.80;;;5.22;;
16246;SDS011;8231;50.866;7.944;2024-03-23T09:55:32;10.02;;;4.80;;
16246;SDS011;8231;50.866;7.944;2024-03-23T09:58:00;7.75;;;4.30;;
16246;SDS011;8231;50.866;7.944;2024-03-23T10:00:27;8.13;;;4.65;;
16246;SDS011;8231;50.866;7.944;2024-03-23T10:02:55;11.27;;;5.05;;
16246;SDS011;8231;50.866;7.944;2024-03-23T10:05:22;9.52;;;5.43;;
16246;SDS011;8231;50.866;7.944;2024-03-23T10:07:51;11.32;;;5.75;;
16246;SDS011;8231;50.866;7.944;2024-03-23T10:10:17;13.85;;;6.00;;
16246;SDS011;8231;50.866;7.944;2024-03-23T10:12:45;10.88;;;5.63;;
16246;SDS011;8231;50.866;7.944;2024-03-23T10:15:17;9.70;;;4.93;;
16246;SDS011;8231;50.866;7.944;2024-03-23T10:17:46;7.38;;;4.32;;
16246;SDS011;8231;50.866;7.944;2024-03-23T10:20:12;6.93;;;4.00;;
16246;SDS011;8231;50.866;7.944;2024-03-23T10:22:40;9.35;;;3.72;;
16246;SDS011;8231;50.866;7.944;2024-03-23T10:25:08;5.57;;;3.22;;
16246;SDS011;8231;50.866;7.944;2024-03-23T10:27:36;8.18;;;4.40;;
16246;SDS011;8231;50.866;7.944;2024-03-23T10:30:09;8.07;;;4.13;;
16246;SDS011;8231;50.866;7.944;2024-03-23T10:32:37;5.65;;;3.45;;
16246;SDS011;8231;50.866;7.944;2024-03-23T10:35:14;8.90;;;3.58;;
16246;SDS011;8231;50.866;7.944;2024-03-23T10:37:42;6.07;;;3.30;;
16246;SDS011;8231;50.866;7.944;2024-03-23T10:40:11;17.48;;;2.58;;
16246;SDS011;8231;50.866;7.944;2024-03-23T10:42:39;4.60;;;2.13;;
16246;SDS011;8231;50.866;7.944;2024-03-23T10:45:06;3.95;;;2.67;;
16246;SDS011;8231;50.866;7.944;2024-03-23T10:47:34;4.05;;;2.40;;
16246;SDS011;8231;50.866;7.944;2024-03-23T10:50:02;3.47;;;2.28;;
16246;SDS011;8231;50.866;7.944;2024-03-23T10:52:31;4.68;;;2.80;;
16246;SDS011;8231;50.866;7.944;2024-03-23T10:54:57;4.03;;;2.70;;
16246;SDS011;8231;50.866;7.944;2024-03-23T10:57:28;5.72;;;3.50;;
16246;SDS011;8231;50.866;7.944;2024-03-23T10:59:59;6.05;;;4.00;;
16246;SDS011;8231;50.866;7.944;2024-03-23T11:02:28;8.30;;;4.30;;
16246;SDS011;8231;50.866;7.944;2024-03-23T11:04:55;6.80;;;4.15;;
16246;SDS011;8231;50.866;7.944;2024-03-23T11:07:29;7.70;;;3.75;;
16246;SDS011;8231;50.866;7.944;2024-03-23T11:09:57;7.03;;;4.38;;
16246;SDS011;8231;50.866;7.944;2024-03-23T11:12:27;6.00;;;4.13;;
16246;SDS011;8231;50.866;7.944;2024-03-23T11:15:02;7.57;;;4.00;;
16246;SDS011;8231;50.866;7.944;2024-03-23T11:17:31;9.85;;;4.35;;
16246;SDS011;8231;50.866;7.944;2024-03-23T11:19:58;8.40;;;4.55;;
16246;SDS011;8231;50.866;7.944;2024-03-23T11:22:42;8.75;;;3.88;;
16246;SDS011;8231;50.866;7.944;2024-03-23T11:25:16;7.75;;;3.03;;
16246;SDS011;8231;50.866;7.944;2024-03-23T11:27:47;9.10;;;4.82;;
16246;SDS011;8231;50.866;7.944;2024-03-23T11:30:16;9.30;;;3.60;;
16246;SDS011;8231;50.866;7.944;2024-03-23T11:32:44;8.95;;;3.63;;
16246;SDS011;8231;50.866;7.944;2024-03-23T11:35:24;4.13;;;2.72;;
16246;SDS011;8231;50.866;7.944;2024-03-23T11:38:05;4.68;;;2.55;;
16246;SDS011;8231;50.866;7.944;2024-03-23T11:40:33;6.53;;;2.30;;
16246;SDS011;8231;50.866;7.944;2024-03-23T11:43:03;4.43;;;2.25;;
16246;SDS011;8231;50.866;7.944;2024-03-23T11:45:33;3.35;;;1.60;;
16246;SDS011;8231;50.866;7.944;2024-03-23T11:48:02;4.07;;;1.95;;
16246;SDS011;8231;50.866;7.944;2024-03-23T11:50:32;1.92;;;1.50;;
16246;SDS011;8231;50.866;7.944;2024-03-23T11:53:07;1.98;;;0.98;;
16246;SDS011;8231;50.866;7.944;2024-03-23T11:55:45;1.20;;;1.02;;
16246;SDS011;8231;50.866;7.944;2024-03-23T11:58:15;2.72;;;1.63;;
16246;SDS011;8231;50.866;7.944;2024-03-23T12:00:43;1.95;;;1.20;;
16246;SDS011;8231;50.866;7.944;2024-03-23T12:03:15;2.50;;;1.00;;
16246;SDS011;8231;50.866;7.944;2024-03-23T12:05:47;1.58;;;1.20;;
16246;SDS011;8231;50.866;7.944;2024-03-23T12:08:15;1.10;;;0.88;;
16246;SDS011;8231;50.866;7.944;2024-03-23T12:10:44;1.30;;;1.20;;
16246;SDS011;8231;50.866;7.944;2024-03-23T12:13:15;3.33;;;1.70;;
16246;SDS011;8231;50.866;7.944;2024-03-23T12:15:47;1.98;;;0.95;;
16246;SDS011;8231;50.866;7.944;2024-03-23T12:18:15;4.22;;;1.55;;
16246;SDS011;8231;50.866;7.944;2024-03-23T12:20:42;3.15;;;1.40;;
16246;SDS011;8231;50.866;7.944;2024-03-23T12:23:10;3.78;;;1.60;;
16246;SDS011;8231;50.866;7.944;2024-03-23T12:25:41;3.75;;;1.90;;
16246;SDS011;8231;50.866;7.944;2024-03-23T12:28:07;1.92;;;1.38;;
16246;SDS011;8231;50.866;7.944;2024-03-23T12:30:38;4.85;;;1.75;;
16246;SDS011;8231;50.866;7.944;2024-03-23T12:33:05;1.17;;;1.02;;
16246;SDS011;8231;50.866;7.944;2024-03-23T12:35:33;2.00;;;1.10;;
16246;SDS011;8231;50.866;7.944;2024-03-23T12:37:59;3.20;;;2.72;;
16246;SDS011;8231;50.866;7.944;2024-03-23T12:40:27;3.03;;;1.48;;
16246;SDS011;8231;50.866;7.944;2024-03-23T12:42:53;2.83;;;1.20;;
16246;SDS011;8231;50.866;7.944;2024-03-23T12:45:21;6.00;;;1.15;;
16246;SDS011;8231;50.866;7.944;2024-03-23T12:47:49;2.97;;;1.10;;
16246;SDS011;8231;50.866;7.944;2024-03-23T12:50:18;2.53;;;1.48;;
16246;SDS011;8231;50.866;7.944;2024-03-23T12:52:44;2.47;;;1.40;;
16246;SDS011;8231;50.866;7.944;2024-03-23T12:55:11;4.63;;;1.30;;
16246;SDS011;8231;50.866;7.944;2024-03-23T12:57:38;3.80;;;1.20;;
16246;SDS011;8231;50.866;7.944;2024-03-23T13:00:06;1.13;;;1.00;;
16246;SDS011;8231;50.866;7.944;2024-03-23T13:02:35;3.30;;;1.30;;
16246;SDS011;8231;50.866;7.944;2024-03-23T13:05:06;3.75;;;1.30;;
16246;SDS011;8231;50.866;7.944;2024-03-23T13:07:33;4.30;;;1.52;;
16246;SDS011;8231;50.866;7.944;2024-03-23T13:10:00;3.90;;;1.48;;
16246;SDS011;8231;50.866;7.944;2024-03-23T13:12:28;3.33;;;1.15;;
16246;SDS011;8231;50.866;7.944;2024-03-23T13:14:55;4.13;;;1.70;;
16246;SDS011;8231;50.866;7.944;2024-03-23T13:17:21;4.32;;;1.83;;
16246;SDS011;8231;50.866;7.944;2024-03-23T13:19:48;3.17;;;1.80;;
16246;SDS011;8231;50.866;7.944;2024-03-23T13:22:16;2.22;;;1.90;;
16246;SDS011;8231;50.866;7.944;2024-03-23T13:24:43;0.98;;;0.98;;
16246;SDS011;8231;50.866;7.944;2024-03-23T13:27:11;1.45;;;1.35;;
16246;SDS011;8231;50.866;7.944;2024-03-23T13:29:37;1.70;;;1.20;;
16246;SDS011;8231;50.866;7.944;2024-03-23T13:32:05;1.10;;;1.00;;
16246;SDS011;8231;50.866;7.944;2024-03-23T13:34:32;4.55;;;1.20;;
16246;SDS011;8231;50.866;7.944;2024-03-23T13:37:00;2.60;;;1.30;;
16246;SDS011;8231;50.866;7.944;2024-03-23T13:39:28;3.47;;;1.77;;
16246;SDS011;8231;50.866;7.944;2024-03-23T13:41:57;2.95;;;1.63;;
16246;SDS011;8231;50.866;7.944;2024-03-23T13:44:23;2.55;;;1.50;;
16246;SDS011;8231;50.866;7.944;2024-03-23T13:46:50;3.58;;;1.70;;
16246;SDS011;8231;50.866;7.944;2024-03-23T13:49:24;1.63;;;1.38;;
16246;SDS011;8231;50.866;7.944;2024-03-23T13:51:53;2.35;;;1.08;;
16246;SDS011;8231;50.866;7.944;2024-03-23T13:54:20;2.25;;;2.03;;
16246;SDS011;8231;50.866;7.944;2024-03-23T13:56:49;2.65;;;2.03;;
16246;SDS011;8231;50.866;7.944;2024-03-23T13:59:16;2.38;;;1.80;;
16246;SDS011;8231;50.866;7.944;2024-03-23T14:01:44;2.33;;;1.70;;
16246;SDS011;8231;50.866;7.944;2024-03-23T14:04:11;4.97;;;2.30;;
16246;SDS011;8231;50.866;7.944;2024-03-23T14:06:38;2.78;;;1.70;;
16246;SDS011;8231;50.866;7.944;2024-03-23T14:09:04;3.42;;;2.13;;
16246;SDS011;8231;50.866;7.944;2024-03-23T14:11:34;3.97;;;1.90;;
16246;SDS011;8231;50.866;7.944;2024-03-23T14:14:03;3.03;;;1.92;;
16246;SDS011;8231;50.866;7.944;2024-03-23T14:16:31;4.63;;;1.83;;
16246;SDS011;8231;50.866;7.944;2024-03-23T14:18:57;2.20;;;2.00;;
16246;SDS011;8231;50.866;7.944;2024-03-23T14:21:24;2.10;;;1.90;;
16246;SDS011;8231;50.866;7.944;2024-03-23T14:23:51;3.10;;;2.15;;
16246;SDS011;8231;50.866;7.944;2024-03-23T14:26:19;2.50;;;2.30;;
16246;SDS011;8231;50.866;7.944;2024-03-23T14:28:45;1.90;;;1.70;;
16246;SDS011;8231;50.866;7.944;2024-03-23T14:31:14;3.33;;;2.20;;
16246;SDS011;8231;50.866;7.944;2024-03-23T14:33:40;2.10;;;1.98;;
16246;SDS011;8231;50.866;7.944;2024-03-23T14:36:12;4.22;;;2.33;;
16246;SDS011;8231;50.866;7.944;2024-03-23T14:38:38;2.95;;;1.92;;
16246;SDS011;8231;50.866;7.944;2024-03-23T14:41:05;3.47;;;2.40;;
16246;SDS011;8231;50.866;7.944;2024-03-23T14:43:31;4.90;;;2.42;;
16246;SDS011;8231;50.866;7.944;2024-03-23T14:46:08;7.50;;;3.15;;
16246;SDS011;8231;50.866;7.944;2024-03-23T14:48:38;3.30;;;2.85;;
16246;SDS011;8231;50.866;7.944;2024-03-23T14:51:06;4.68;;;2.47;;
16246;SDS011;8231;50.866;7.944;2024-03-23T14:53:34;5.35;;;4.40;;
16246;SDS011;8231;50.866;7.944;2024-03-23T14:56:02;5.15;;;2.60;;
16246;SDS011;8231;50.866;7.944;2024-03-23T14:58:29;4.90;;;2.10;;
16246;SDS011;8231;50.866;7.944;2024-03-23T15:01:00;4.28;;;2.15;;
16246;SDS011;8231;50.866;7.944;2024-03-23T15:03:27;5.25;;;2.70;;
16246;SDS011;8231;50.866;7.944;2024-03-23T15:05:56;4.40;;;1.83;;
16246;SDS011;8231;50.866;7.944;2024-03-23T15:08:23;4.15;;;1.85;;
16246;SDS011;8231;50.866;7.944;2024-03-23T15:10:50;5.63;;;2.65;;
16246;SDS011;8231;50.866;7.944;2024-03-23T15:13:17;5.57;;;2.70;;
16246;SDS011;8231;50.866;7.944;2024-03-23T15:15:44;3.63;;;2.28;;
16246;SDS011;8231;50.866;7.944;2024-03-23T15:18:11;3.88;;;2.58;;
16246;SDS011;8231;50.866;7.944;2024-03-23T15:20:40;3.65;;;2.53;;
16246;SDS011;8231;50.866;7.944;2024-03-23T15:23:08;3.65;;;2.00;;
16246;SDS011;8231;50.866;7.944;2024-03-23T15:25:35;3.00;;;2.42;;
16246;SDS011;8231;50.866;7.944;2024-03-23T15:28:03;2.70;;;1.95;;
16246;SDS011;8231;50.866;7.944;2024-03-23T15:30:31;2.25;;;1.30;;
16246;SDS011;8231;50.866;7.944;2024-03-23T15:32:57;6.90;;;2.28;;
16246;SDS011;8231;50.866;7.944;2024-03-23T15:35:25;2.90;;;1.60;;
16246;SDS011;8231;50.866;7.944;2024-03-23T15:37:51;2.67;;;2.20;;
16246;SDS011;8231;50.866;7.944;2024-03-23T15:40:19;2.65;;;2.00;;
16246;SDS011;8231;50.866;7.944;2024-03-23T15:42:46;3.47;;;2.30;;
16246;SDS011;8231;50.866;7.944;2024-03-23T15:45:13;3.33;;;1.73;;
16246;SDS011;8231;50.866;7.944;2024-03-23T15:47:39;2.30;;;1.83;;
16246;SDS011;8231;50.866;7.944;2024-03-23T15:50:07;3.28;;;2.00;;
16246;SDS011;8231;50.866;7.944;2024-03-23T15:52:34;4.60;;;2.30;;
16246;SDS011;8231;50.866;7.944;2024-03-23T15:55:03;3.88;;;2.20;;